sensor_id;sensor_type;location;lat;lon;timestamp;pressure;altitude;pressure_sealevel;temperature;humidity
59443;BME280;45247;47.466;19.004;2022-08-19T00:00:40;99361.50;;;25.27;100.00
59443;BME280;45247;47.466;19.004;2022-08-19T00:03:09;99366.28;;;25.25;100.00
59443;BME280;45247;47.466;19.004;2022-08-19T00:05:38;99369.19;;;25.23;100.00
59443;BME280;45247;47.466;19.004;2022-08-19T00:08:07;99365.00;;;25.20;100.00
59443;BME280;45247;47.466;19.004;2022-08-19T00:10:35;99362.50;;;25.19;100.00
59443;BME280;45247;47.466;19.004;2022-08-19T00:13:03;99357.56;;;25.22;100.00
59443;BME280;45247;47.466;19.004;2022-08-19T00:15:31;99356.69;;;25.22;100.00
59443;BME280;45247;47.466;19.004;2022-08-19T00:18:00;99362.91;;;25.16;100.00
59443;BME280;45247;47.466;19.004;2022-08-19T00:20:28;99358.09;;;25.11;100.00
59443;BME280;45247;47.466;19.004;2022-08-19T00:22:57;99358.31;;;25.10;100.00
59443;BME280;45247;47.466;19.004;2022-08-19T00:25:25;99362.84;;;25.09;100.00
59443;BME280;45247;47.466;19.004;2022-08-19T00:27:56;99368.63;;;25.06;100.00
59443;BME280;45247;47.466;19.004;2022-08-19T00:30:25;99356.94;;;24.99;100.00
59443;BME280;45247;47.466;19.004;2022-08-19T00:32:54;99363.56;;;24.96;100.00
59443;BME280;45247;47.466;19.004;2022-08-19T00:35:23;99354.03;;;25.01;100.00
59443;BME280;45247;47.466;19.004;2022-08-19T00:37:51;99359.84;;;24.97;100.00
59443;BME280;45247;47.466;19.004;2022-08-19T00:40:21;99364.06;;;25.07;100.00
59443;BME280;45247;47.466;19.004;2022-08-19T00:42:49;99364.44;;;25.04;100.00
59443;BME280;45247;47.466;19.004;2022-08-19T00:45:24;99358.44;;;25.02;100.00
59443;BME280;45247;47.466;19.004;2022-08-19T00:47:53;99356.56;;;25.02;100.00
59443;BME280;45247;47.466;19.004;2022-08-19T00:50:22;99348.25;;;25.04;100.00
59443;BME280;45247;47.466;19.004;2022-08-19T00:52:51;99341.41;;;25.08;100.00
59443;BME280;45247;47.466;19.004;2022-08-19T00:55:24;99342.84;;;25.04;100.00
59443;BME280;45247;47.466;19.004;2022-08-19T00:57:57;99354.56;;;25.11;100.00
59443;BME280;45247;47.466;19.004;2022-08-19T01:00:27;99352.47;;;25.13;100.00
59443;BME280;45247;47.466;19.004;2022-08-19T01:02:56;99347.22;;;25.05;100.00
59443;BME280;45247;47.466;19.004;2022-08-19T01:05:27;99357.00;;;25.06;100.00
59443;BME280;45247;47.466;19.004;2022-08-19T01:07:57;99349.06;;;24.97;100.00
59443;BME280;45247;47.466;19.004;2022-08-19T01:10:30;99348.38;;;24.89;100.00
59443;BME280;45247;47.466;19.004;2022-08-19T01:13:04;99346.34;;;24.97;100.00
59443;BME280;45247;47.466;19.004;2022-08-19T01:15:34;99348.59;;;24.94;100.00
59443;BME280;45247;47.466;19.004;2022-08-19T01:18:06;99346.50;;;24.89;100.00
59443;BME280;45247;47.466;19.004;2022-08-19T01:20:34;99347.13;;;24.91;100.00
59443;BME280;45247;47.466;19.004;2022-08-19T01:23:04;99340.88;;;24.84;100.00
59443;BME280;45247;47.466;19.004;2022-08-19T01:25:41;99339.16;;;24.77;100.00
59443;BME280;45247;47.466;19.004;2022-08-19T01:28:17;99343.03;;;24.67;100.00
59443;BME280;45247;47.466;19.004;2022-08-19T01:30:59;99339.63;;;24.59;100.00
59443;BME280;45247;47.466;19.004;2022-08-19T01:33:33;99328.06;;;24.65;100.00
59443;BME280;45247;47.466;19.004;2022-08-19T01:36:07;99328.13;;;24.71;100.00
59443;BME280;45247;47.466;19.004;2022-08-19T01:38:39;99323.50;;;24.65;100.00
59443;BME280;45247;47.466;19.004;2022-08-19T01:41:10;99334.34;;;24.72;100.00
59443;BME280;45247;47.466;19.004;2022-08-19T01:43:39;99331.81;;;24.70;100.00
59443;BME280;45247;47.466;19.004;2022-08-19T01:46:27;99332.09;;;24.76;100.00
59443;BME280;45247;47.466;19.004;2022-08-19T01:48:56;99318.16;;;24.72;100.00
59443;BME280;45247;47.466;19.004;2022-08-19T01:51:24;99319.13;;;24.64;100.00
59443;BME280;45247;47.466;19.004;2022-08-19T01:53:54;99309.19;;;24.65;100.00
59443;BME280;45247;47.466;19.004;2022-08-19T01:56:22;99311.06;;;24.71;100.00
59443;BME280;45247;47.466;19.004;2022-08-19T01:58:55;99295.97;;;24.77;100.00
59443;BME280;45247;47.466;19.004;2022-08-19T02:01:23;99294.72;;;24.72;100.00
59443;BME280;45247;47.466;19.004;2022-08-19T02:03:57;99301.63;;;24.82;100.00
59443;BME280;45247;47.466;19.004;2022-08-19T02:06:25;99294.72;;;24.79;100.00
59443;BME280;45247;47.466;19.004;2022-08-19T02:08:55;99289.19;;;24.87;100.00
59443;BME280;45247;47.466;19.004;2022-08-19T02:11:25;99284.91;;;24.99;100.00
59443;BME280;45247;47.466;19.004;2022-08-19T02:13:54;99289.69;;;24.97;100.00
59443;BME280;45247;47.466;19.004;2022-08-19T02:16:23;99288.00;;;24.96;100.00
59443;BME280;45247;47.466;19.004;2022-08-19T02:18:51;99287.59;;;24.99;100.00
59443;BME280;45247;47.466;19.004;2022-08-19T02:21:21;99294.47;;;25.02;100.00
59443;BME280;45247;47.466;19.004;2022-08-19T02:23:50;99277.19;;;24.96;100.00
59443;BME280;45247;47.466;19.004;2022-08-19T02:26:19;99285.44;;;25.10;100.00
59443;BME280;45247;47.466;19.004;2022-08-19T02:28:48;99279.81;;;25.18;100.00
59443;BME280;45247;47.466;19.004;2022-08-19T02:31:18;99271.00;;;25.03;100.00
59443;BME280;45247;47.466;19.004;2022-08-19T02:33:47;99270.94;;;24.89;100.00
59443;BME280;45247;47.466;19.004;2022-08-19T02:36:16;99282.13;;;24.86;100.00
59443;BME280;45247;47.466;19.004;2022-08-19T02:38:47;99285.81;;;24.79;100.00
59443;BME280;45247;47.466;19.004;2022-08-19T02:41:24;99289.56;;;24.78;100.00
59443;BME280;45247;47.466;19.004;2022-08-19T02:43:53;99302.16;;;24.70;100.00
59443;BME280;45247;47.466;19.004;2022-08-19T02:46:45;99305.25;;;24.67;100.00
59443;BME280;45247;47.466;19.004;2022-08-19T02:49:13;99303.78;;;24.65;100.00
59443;BME280;45247;47.466;19.004;2022-08-19T02:51:44;99297.94;;;24.61;100.00
59443;BME280;45247;47.466;19.004;2022-08-19T02:54:14;99304.38;;;24.60;100.00
59443;BME280;45247;47.466;19.004;2022-08-19T02:56:44;99320.06;;;24.78;100.00
59443;BME280;45247;47.466;19.004;2022-08-19T02:59:13;99316.47;;;24.71;100.00
59443;BME280;45247;47.466;19.004;2022-08-19T03:01:41;99317.25;;;24.65;100.00
59443;BME280;45247;47.466;19.004;2022-08-19T03:04:12;99315.75;;;24.56;100.00
59443;BME280;45247;47.466;19.004;2022-08-19T03:06:43;99303.75;;;24.58;100.00
59443;BME280;45247;47.466;19.004;2022-08-19T03:09:13;99308.69;;;24.55;100.00
59443;BME280;45247;47.466;19.004;2022-08-19T03:11:41;99314.91;;;24.55;100.00
59443;BME280;45247;47.466;19.004;2022-08-19T03:14:11;99320.50;;;24.54;100.00
59443;BME280;45247;47.466;19.004;2022-08-19T03:16:42;99325.19;;;24.45;100.00
59443;BME280;45247;47.466;19.004;2022-08-19T03:19:10;99331.16;;;24.40;100.00
59443;BME280;45247;47.466;19.004;2022-08-19T03:21:39;99335.94;;;24.38;100.00
59443;BME280;45247;47.466;19.004;2022-08-19T03:24:08;99328.47;;;24.40;100.00
59443;BME280;45247;47.466;19.004;2022-08-19T03:26:38;99324.88;;;24.33;100.00
59443;BME280;45247;47.466;19.004;2022-08-19T03:29:07;99329.84;;;24.36;100.00
59443;BME280;45247;47.466;19.004;2022-08-19T03:31:41;99333.97;;;24.32;100.00
59443;BME280;45247;47.466;19.004;2022-08-19T03:34:20;99331.47;;;24.31;100.00
59443;BME280;45247;47.466;19.004;2022-08-19T03:36:48;99335.13;;;24.23;100.00
59443;BME280;45247;47.466;19.004;2022-08-19T03:39:17;99335.81;;;24.32;100.00
59443;BME280;45247;47.466;19.004;2022-08-19T03:41:46;99337.25;;;24.28;100.00
59443;BME280;45247;47.466;19.004;2022-08-19T03:44:35;99337.66;;;24.24;100.00
59443;BME280;45247;47.466;19.004;2022-08-19T03:47:06;99342.75;;;24.19;100.00
59443;BME280;45247;47.466;19.004;2022-08-19T03:49:34;99352.47;;;24.14;100.00
59443;BME280;45247;47.466;19.004;2022-08-19T03:52:03;99344.75;;;24.11;100.00
59443;BME280;45247;47.466;19.004;2022-08-19T03:54:34;99366.06;;;24.06;100.00
59443;BME280;45247;47.466;19.004;2022-08-19T03:57:05;99363.09;;;24.01;100.00
59443;BME280;45247;47.466;19.004;2022-08-19T03:59:35;99355.22;;;23.99;100.00
59443;BME280;45247;47.466;19.004;2022-08-19T04:02:09;99341.28;;;23.95;100.00
59443;BME280;45247;47.466;19.004;2022-08-19T04:04:38;99351.75;;;24.05;100.00
59443;BME280;45247;47.466;19.004;2022-08-19T04:07:07;99347.19;;;24.06;100.00
59443;BME280;45247;47.466;19.004;2022-08-19T04:09:36;99361.94;;;24.10;100.00
59443;BME280;45247;47.466;19.004;2022-08-19T04:12:05;99369.28;;;24.16;100.00
59443;BME280;45247;47.466;19.004;2022-08-19T04:14:34;99363.06;;;24.15;100.00
59443;BME280;45247;47.466;19.004;2022-08-19T04:17:03;99382.66;;;24.24;100.00
59443;BME280;45247;47.466;19.004;2022-08-19T04:19:35;99381.22;;;24.28;100.00
59443;BME280;45247;47.466;19.004;2022-08-19T04:22:04;99380.09;;;24.37;100.00
59443;BME280;45247;47.466;19.004;2022-08-19T04:24:34;99351.06;;;24.39;100.00
59443;BME280;45247;47.466;19.004;2022-08-19T04:27:03;99368.03;;;24.55;100.00
59443;BME280;45247;47.466;19.004;2022-08-19T04:29:33;99373.66;;;24.60;100.00
59443;BME280;45247;47.466;19.004;2022-08-19T04:32:01;99380.44;;;24.77;100.00
59443;BME280;45247;47.466;19.004;2022-08-19T04:34:36;99373.28;;;24.91;100.00
59443;BME280;45247;47.466;19.004;2022-08-19T04:37:25;99386.97;;;25.17;100.00
59443;BME280;45247;47.466;19.004;2022-08-19T04:40:02;99385.47;;;25.43;100.00
59443;BME280;45247;47.466;19.004;2022-08-19T04:42:44;99381.28;;;25.75;99.89
59443;BME280;45247;47.466;19.004;2022-08-19T04:45:13;99368.22;;;25.85;97.50
59443;BME280;45247;47.466;19.004;2022-08-19T04:47:43;99371.22;;;26.10;96.43
59443;BME280;45247;47.466;19.004;2022-08-19T04:50:26;99365.00;;;26.23;95.08
59443;BME280;45247;47.466;19.004;2022-08-19T04:52:54;99365.25;;;26.35;93.31
59443;BME280;45247;47.466;19.004;2022-08-19T04:55:23;99382.53;;;26.54;91.50
59443;BME280;45247;47.466;19.004;2022-08-19T04:57:52;99374.03;;;26.70;90.75
59443;BME280;45247;47.466;19.004;2022-08-19T05:00:20;99380.66;;;27.01;87.10
59443;BME280;45247;47.466;19.004;2022-08-19T05:02:49;99390.44;;;27.15;86.60
59443;BME280;45247;47.466;19.004;2022-08-19T05:05:17;99378.75;;;27.34;85.80
59443;BME280;45247;47.466;19.004;2022-08-19T05:07:47;99378.66;;;27.67;82.99
59443;BME280;45247;47.466;19.004;2022-08-19T05:10:15;99382.66;;;28.10;80.87
59443;BME280;45247;47.466;19.004;2022-08-19T05:12:44;99385.38;;;28.35;78.44
59443;BME280;45247;47.466;19.004;2022-08-19T05:15:12;99386.88;;;28.37;77.31
59443;BME280;45247;47.466;19.004;2022-08-19T05:17:40;99383.72;;;28.34;77.07
59443;BME280;45247;47.466;19.004;2022-08-19T05:20:28;99377.75;;;29.07;73.46
59443;BME280;45247;47.466;19.004;2022-08-19T05:23:15;99372.81;;;29.04;71.24
59443;BME280;45247;47.466;19.004;2022-08-19T05:25:48;99377.03;;;29.00;70.23
59443;BME280;45247;47.466;19.004;2022-08-19T05:28:16;99379.75;;;29.55;69.14
59443;BME280;45247;47.466;19.004;2022-08-19T05:30:45;99377.72;;;29.87;67.56
59443;BME280;45247;47.466;19.004;2022-08-19T05:33:14;99378.38;;;30.01;64.05
59443;BME280;45247;47.466;19.004;2022-08-19T05:35:43;99375.78;;;30.24;65.36
59443;BME280;45247;47.466;19.004;2022-08-19T05:38:11;99388.63;;;30.71;61.77
59443;BME280;45247;47.466;19.004;2022-08-19T05:40:41;99384.44;;;30.44;62.50
59443;BME280;45247;47.466;19.004;2022-08-19T05:43:12;99379.81;;;30.87;60.94
59443;BME280;45247;47.466;19.004;2022-08-19T05:45:42;99382.66;;;30.92;60.47
59443;BME280;45247;47.466;19.004;2022-08-19T05:48:11;99386.75;;;30.59;61.60
59443;BME280;45247;47.466;19.004;2022-08-19T05:50:41;99386.31;;;30.86;61.57
59443;BME280;45247;47.466;19.004;2022-08-19T05:53:09;99375.31;;;31.28;58.02
59443;BME280;45247;47.466;19.004;2022-08-19T05:55:37;99377.56;;;30.84;58.71
59443;BME280;45247;47.466;19.004;2022-08-19T05:58:07;99370.94;;;31.27;59.01
59443;BME280;45247;47.466;19.004;2022-08-19T06:00:36;99374.63;;;30.97;58.64
59443;BME280;45247;47.466;19.004;2022-08-19T06:03:05;99380.50;;;31.53;57.53
59443;BME280;45247;47.466;19.004;2022-08-19T06:05:39;99377.88;;;32.38;53.44
59443;BME280;45247;47.466;19.004;2022-08-19T06:08:18;99379.97;;;31.91;55.64
59443;BME280;45247;47.466;19.004;2022-08-19T06:11:13;99377.28;;;32.25;53.20
59443;BME280;45247;47.466;19.004;2022-08-19T06:13:43;99371.03;;;31.96;54.45
59443;BME280;45247;47.466;19.004;2022-08-19T06:16:13;99377.66;;;32.00;55.35
59443;BME280;45247;47.466;19.004;2022-08-19T06:18:46;99375.06;;;31.93;54.14
59443;BME280;45247;47.466;19.004;2022-08-19T06:21:15;99392.63;;;31.33;57.35
59443;BME280;45247;47.466;19.004;2022-08-19T06:23:43;99370.63;;;31.63;57.93
59443;BME280;45247;47.466;19.004;2022-08-19T06:26:12;99376.28;;;31.85;57.25
59443;BME280;45247;47.466;19.004;2022-08-19T06:28:40;99360.47;;;31.99;56.75
59443;BME280;45247;47.466;19.004;2022-08-19T06:31:11;99358.63;;;32.16;54.53
59443;BME280;45247;47.466;19.004;2022-08-19T06:33:40;99351.16;;;31.72;55.47
59443;BME280;45247;47.466;19.004;2022-08-19T06:36:16;99360.41;;;31.82;55.47
59443;BME280;45247;47.466;19.004;2022-08-19T06:38:44;99363.88;;;31.66;55.66
59443;BME280;45247;47.466;19.004;2022-08-19T06:41:12;99368.97;;;31.62;56.23
59443;BME280;45247;47.466;19.004;2022-08-19T06:43:41;99357.78;;;31.12;58.45
59443;BME280;45247;47.466;19.004;2022-08-19T06:46:12;99354.69;;;31.20;60.15
59443;BME280;45247;47.466;19.004;2022-08-19T06:48:41;99352.22;;;30.95;59.77
59443;BME280;45247;47.466;19.004;2022-08-19T06:51:12;99349.75;;;31.05;59.88
59443;BME280;45247;47.466;19.004;2022-08-19T06:53:45;99362.34;;;30.53;61.45
59443;BME280;45247;47.466;19.004;2022-08-19T06:56:16;99359.69;;;30.76;61.26
59443;BME280;45247;47.466;19.004;2022-08-19T06:58:45;99371.63;;;30.87;61.04
59443;BME280;45247;47.466;19.004;2022-08-19T07:01:14;99383.84;;;31.08;60.27
59443;BME280;45247;47.466;19.004;2022-08-19T07:03:42;99388.25;;;31.44;57.99
59443;BME280;45247;47.466;19.004;2022-08-19T07:06:13;99398.31;;;30.97;58.76
59443;BME280;45247;47.466;19.004;2022-08-19T07:09:04;99399.84;;;30.92;58.96
59443;BME280;45247;47.466;19.004;2022-08-19T07:11:33;99390.72;;;31.22;60.38
59443;BME280;45247;47.466;19.004;2022-08-19T07:14:02;99396.28;;;31.51;56.94
59443;BME280;45247;47.466;19.004;2022-08-19T07:16:31;99400.88;;;31.62;58.11
59443;BME280;45247;47.466;19.004;2022-08-19T07:18:59;99402.06;;;31.66;56.77
59443;BME280;45247;47.466;19.004;2022-08-19T07:21:41;99401.56;;;31.69;56.66
59443;BME280;45247;47.466;19.004;2022-08-19T07:24:09;99397.72;;;31.18;57.07
59443;BME280;45247;47.466;19.004;2022-08-19T07:26:41;99395.56;;;31.08;58.24
59443;BME280;45247;47.466;19.004;2022-08-19T07:29:11;99388.09;;;31.39;58.78
59443;BME280;45247;47.466;19.004;2022-08-19T07:31:41;99406.81;;;31.59;57.55
59443;BME280;45247;47.466;19.004;2022-08-19T07:34:11;99393.72;;;31.73;57.43
59443;BME280;45247;47.466;19.004;2022-08-19T07:36:41;99394.16;;;31.81;55.25
59443;BME280;45247;47.466;19.004;2022-08-19T07:39:12;99392.53;;;31.80;55.99
59443;BME280;45247;47.466;19.004;2022-08-19T07:41:41;99387.53;;;31.89;54.72
59443;BME280;45247;47.466;19.004;2022-08-19T07:44:10;99388.97;;;31.80;56.09
59443;BME280;45247;47.466;19.004;2022-08-19T07:46:45;99380.69;;;31.75;55.50
59443;BME280;45247;47.466;19.004;2022-08-19T07:49:19;99382.91;;;32.18;56.77
59443;BME280;45247;47.466;19.004;2022-08-19T07:51:50;99389.28;;;32.24;53.74
59443;BME280;45247;47.466;19.004;2022-08-19T07:54:20;99382.13;;;32.34;53.70
59443;BME280;45247;47.466;19.004;2022-08-19T07:56:48;99389.50;;;32.05;54.36
59443;BME280;45247;47.466;19.004;2022-08-19T07:59:18;99386.22;;;32.20;53.87
59443;BME280;45247;47.466;19.004;2022-08-19T08:01:49;99378.50;;;32.46;54.19
59443;BME280;45247;47.466;19.004;2022-08-19T08:04:18;99385.34;;;32.60;54.00
59443;BME280;45247;47.466;19.004;2022-08-19T08:07:04;99389.13;;;32.59;49.50
59443;BME280;45247;47.466;19.004;2022-08-19T08:09:57;99384.50;;;32.59;48.96
59443;BME280;45247;47.466;19.004;2022-08-19T08:12:31;99389.03;;;32.54;49.02
59443;BME280;45247;47.466;19.004;2022-08-19T08:15:04;99392.84;;;32.86;49.00
59443;BME280;45247;47.466;19.004;2022-08-19T08:17:39;99394.13;;;32.96;47.38
59443;BME280;45247;47.466;19.004;2022-08-19T08:20:18;99389.13;;;33.09;47.83
59443;BME280;45247;47.466;19.004;2022-08-19T08:22:46;99381.69;;;33.05;47.08
59443;BME280;45247;47.466;19.004;2022-08-19T08:25:33;99388.63;;;33.12;45.63
59443;BME280;45247;47.466;19.004;2022-08-19T08:28:02;99388.31;;;33.09;44.12
59443;BME280;45247;47.466;19.004;2022-08-19T08:30:31;99385.59;;;33.31;44.57
59443;BME280;45247;47.466;19.004;2022-08-19T08:33:04;99389.88;;;33.44;45.05
59443;BME280;45247;47.466;19.004;2022-08-19T08:35:32;99387.38;;;33.59;42.37
59443;BME280;45247;47.466;19.004;2022-08-19T08:38:02;99395.56;;;33.37;42.38
59443;BME280;45247;47.466;19.004;2022-08-19T08:40:39;99377.22;;;33.15;43.39
59443;BME280;45247;47.466;19.004;2022-08-19T08:43:18;99378.81;;;33.33;43.78
59443;BME280;45247;47.466;19.004;2022-08-19T08:45:51;99368.41;;;33.52;42.61
59443;BME280;45247;47.466;19.004;2022-08-19T08:48:24;99361.25;;;33.46;41.71
59443;BME280;45247;47.466;19.004;2022-08-19T08:50:58;99350.53;;;33.45;42.76
59443;BME280;45247;47.466;19.004;2022-08-19T08:53:31;99361.13;;;33.19;42.59
59443;BME280;45247;47.466;19.004;2022-08-19T08:56:07;99365.47;;;32.81;43.86
59443;BME280;45247;47.466;19.004;2022-08-19T08:58:49;99369.25;;;33.14;43.07
59443;BME280;45247;47.466;19.004;2022-08-19T09:01:20;99384.13;;;33.23;43.12
59443;BME280;45247;47.466;19.004;2022-08-19T09:03:50;99363.03;;;33.02;43.21
59443;BME280;45247;47.466;19.004;2022-08-19T09:06:25;99367.13;;;32.99;43.76
59443;BME280;45247;47.466;19.004;2022-08-19T09:09:01;99357.41;;;33.08;43.54
59443;BME280;45247;47.466;19.004;2022-08-19T09:11:54;99373.72;;;33.20;43.44
59443;BME280;45247;47.466;19.004;2022-08-19T09:14:35;99359.22;;;33.20;43.17
59443;BME280;45247;47.466;19.004;2022-08-19T09:17:19;99353.22;;;33.61;43.07
59443;BME280;45247;47.466;19.004;2022-08-19T09:20:02;99356.41;;;33.53;44.09
59443;BME280;45247;47.466;19.004;2022-08-19T09:22:36;99344.94;;;33.78;43.22
59443;BME280;45247;47.466;19.004;2022-08-19T09:25:06;99346.75;;;33.95;43.27
59443;BME280;45247;47.466;19.004;2022-08-19T09:27:36;99355.41;;;33.86;42.08
59443;BME280;45247;47.466;19.004;2022-08-19T09:30:13;99341.75;;;33.86;42.47
59443;BME280;45247;47.466;19.004;2022-08-19T09:32:42;99325.91;;;33.88;43.43
59443;BME280;45247;47.466;19.004;2022-08-19T09:35:14;99329.59;;;33.99;42.33
59443;BME280;45247;47.466;19.004;2022-08-19T09:37:42;99334.88;;;33.84;41.51
59443;BME280;45247;47.466;19.004;2022-08-19T09:40:11;99334.00;;;33.78;41.37
59443;BME280;45247;47.466;19.004;2022-08-19T09:42:41;99332.28;;;33.72;41.58
59443;BME280;45247;47.466;19.004;2022-08-19T09:45:18;99332.03;;;33.74;41.17
59443;BME280;45247;47.466;19.004;2022-08-19T09:47:47;99327.75;;;34.05;41.43
59443;BME280;45247;47.466;19.004;2022-08-19T09:50:22;99319.72;;;34.25;41.28
59443;BME280;45247;47.466;19.004;2022-08-19T09:52:51;99309.84;;;34.24;40.77
59443;BME280;45247;47.466;19.004;2022-08-19T09:55:24;99308.69;;;34.15;40.35
59443;BME280;45247;47.466;19.004;2022-08-19T09:57:59;99301.41;;;33.99;40.25
59443;BME280;45247;47.466;19.004;2022-08-19T10:00:28;99310.09;;;33.96;40.90
59443;BME280;45247;47.466;19.004;2022-08-19T10:02:57;99304.19;;;34.04;40.34
59443;BME280;45247;47.466;19.004;2022-08-19T10:05:27;99301.13;;;34.27;39.73
59443;BME280;45247;47.466;19.004;2022-08-19T10:08:15;99310.47;;;34.31;40.55
59443;BME280;45247;47.466;19.004;2022-08-19T10:10:44;99325.97;;;34.48;39.15
59443;BME280;45247;47.466;19.004;2022-08-19T10:13:15;99319.41;;;34.49;39.17
59443;BME280;45247;47.466;19.004;2022-08-19T10:15:44;99303.22;;;34.47;39.87
59443;BME280;45247;47.466;19.004;2022-08-19T10:18:15;99297.97;;;34.46;38.99
59443;BME280;45247;47.466;19.004;2022-08-19T10:20:47;99288.22;;;34.55;40.21
59443;BME280;45247;47.466;19.004;2022-08-19T10:23:18;99299.75;;;34.57;38.68
59443;BME280;45247;47.466;19.004;2022-08-19T10:25:47;99292.22;;;34.79;39.24
59443;BME280;45247;47.466;19.004;2022-08-19T10:28:16;99285.66;;;34.85;38.48
59443;BME280;45247;47.466;19.004;2022-08-19T10:30:45;99293.34;;;34.83;38.34
59443;BME280;45247;47.466;19.004;2022-08-19T10:33:14;99291.75;;;34.93;38.22
59443;BME280;45247;47.466;19.004;2022-08-19T10:36:06;99293.00;;;35.12;39.07
59443;BME280;45247;47.466;19.004;2022-08-19T10:38:35;99298.22;;;35.19;38.19
59443;BME280;45247;47.466;19.004;2022-08-19T10:41:08;99297.94;;;35.20;38.36
59443;BME280;45247;47.466;19.004;2022-08-19T10:43:37;99295.97;;;35.05;37.54
59443;BME280;45247;47.466;19.004;2022-08-19T10:46:07;99293.13;;;35.43;38.60
59443;BME280;45247;47.466;19.004;2022-08-19T10:48:43;99300.97;;;35.24;37.25
59443;BME280;45247;47.466;19.004;2022-08-19T10:51:12;99296.50;;;35.60;37.15
59443;BME280;45247;47.466;19.004;2022-08-19T10:54:00;99299.66;;;35.42;36.69
59443;BME280;45247;47.466;19.004;2022-08-19T10:56:33;99296.06;;;35.26;36.88
59443;BME280;45247;47.466;19.004;2022-08-19T10:59:19;99297.50;;;35.38;37.30
59443;BME280;45247;47.466;19.004;2022-08-19T11:01:52;99299.66;;;35.42;37.41
59443;BME280;45247;47.466;19.004;2022-08-19T11:04:23;99288.22;;;35.50;36.79
59443;BME280;45247;47.466;19.004;2022-08-19T11:06:56;99283.91;;;35.79;35.96
59443;BME280;45247;47.466;19.004;2022-08-19T11:09:26;99285.06;;;36.14;37.71
59443;BME280;45247;47.466;19.004;2022-08-19T11:12:00;99277.66;;;36.15;34.96
59443;BME280;45247;47.466;19.004;2022-08-19T11:14:28;99277.38;;;36.26;35.09
59443;BME280;45247;47.466;19.004;2022-08-19T11:16:59;99296.34;;;36.02;35.64
59443;BME280;45247;47.466;19.004;2022-08-19T11:19:28;99290.88;;;36.28;37.17
59443;BME280;45247;47.466;19.004;2022-08-19T11:21:57;99287.56;;;36.51;36.22
59443;BME280;45247;47.466;19.004;2022-08-19T11:24:27;99282.06;;;36.67;35.04
59443;BME280;45247;47.466;19.004;2022-08-19T11:27:01;99279.88;;;36.58;34.97
59443;BME280;45247;47.466;19.004;2022-08-19T11:29:32;99290.84;;;36.64;34.32
59443;BME280;45247;47.466;19.004;2022-08-19T11:32:04;99280.41;;;36.35;34.59
59443;BME280;45247;47.466;19.004;2022-08-19T11:34:32;99287.28;;;36.22;33.81
59443;BME280;45247;47.466;19.004;2022-08-19T11:37:03;99283.19;;;36.50;35.03
59443;BME280;45247;47.466;19.004;2022-08-19T11:39:33;99275.44;;;36.78;34.84
59443;BME280;45247;47.466;19.004;2022-08-19T11:42:03;99269.94;;;36.93;34.02
59443;BME280;45247;47.466;19.004;2022-08-19T11:44:53;99274.84;;;36.86;33.97
59443;BME280;45247;47.466;19.004;2022-08-19T11:47:21;99271.84;;;36.82;33.65
59443;BME280;45247;47.466;19.004;2022-08-19T11:49:50;99272.13;;;36.81;33.68
59443;BME280;45247;47.466;19.004;2022-08-19T11:52:21;99263.28;;;37.09;34.43
59443;BME280;45247;47.466;19.004;2022-08-19T11:54:49;99259.06;;;37.27;33.97
59443;BME280;45247;47.466;19.004;2022-08-19T11:57:17;99262.91;;;37.31;33.62
59443;BME280;45247;47.466;19.004;2022-08-19T11:59:50;99256.13;;;37.14;33.78
59443;BME280;45247;47.466;19.004;2022-08-19T12:02:18;99250.41;;;36.84;33.66
59443;BME280;45247;47.466;19.004;2022-08-19T12:04:48;99253.13;;;37.00;33.72
59443;BME280;45247;47.466;19.004;2022-08-19T12:07:16;99264.13;;;36.90;33.93
59443;BME280;45247;47.466;19.004;2022-08-19T12:09:46;99253.97;;;36.95;33.73
59443;BME280;45247;47.466;19.004;2022-08-19T12:12:14;99261.41;;;36.95;34.59
59443;BME280;45247;47.466;19.004;2022-08-19T12:14:42;99261.38;;;37.00;33.27
59443;BME280;45247;47.466;19.004;2022-08-19T12:17:11;99268.00;;;36.89;33.78
59443;BME280;45247;47.466;19.004;2022-08-19T12:19:40;99262.47;;;36.99;33.80
59443;BME280;45247;47.466;19.004;2022-08-19T12:22:08;99263.28;;;37.04;33.92
59443;BME280;45247;47.466;19.004;2022-08-19T12:24:36;99262.47;;;37.09;33.20
59443;BME280;45247;47.466;19.004;2022-08-19T12:27:05;99266.25;;;37.23;33.93
59443;BME280;45247;47.466;19.004;2022-08-19T12:29:38;99258.03;;;37.13;32.65
59443;BME280;45247;47.466;19.004;2022-08-19T12:32:06;99261.59;;;37.19;33.24
59443;BME280;45247;47.466;19.004;2022-08-19T12:34:37;99260.53;;;37.04;33.76
59443;BME280;45247;47.466;19.004;2022-08-19T12:37:06;99249.72;;;37.28;33.69
59443;BME280;45247;47.466;19.004;2022-08-19T12:39:35;99242.75;;;37.46;34.38
59443;BME280;45247;47.466;19.004;2022-08-19T12:42:06;99237.56;;;37.34;32.53
59443;BME280;45247;47.466;19.004;2022-08-19T12:44:36;99234.59;;;37.26;32.80
59443;BME280;45247;47.466;19.004;2022-08-19T12:47:07;99227.22;;;37.16;31.96
59443;BME280;45247;47.466;19.004;2022-08-19T12:49:36;99223.88;;;37.24;33.97
59443;BME280;45247;47.466;19.004;2022-08-19T12:52:22;99224.31;;;37.52;33.89
59443;BME280;45247;47.466;19.004;2022-08-19T12:54:51;99222.75;;;37.30;32.65
59443;BME280;45247;47.466;19.004;2022-08-19T12:57:23;99216.25;;;37.66;33.12
59443;BME280;45247;47.466;19.004;2022-08-19T12:59:59;99215.03;;;37.82;32.93
59443;BME280;45247;47.466;19.004;2022-08-19T13:02:30;99220.78;;;37.86;32.87
59443;BME280;45247;47.466;19.004;2022-08-19T13:05:06;99230.25;;;38.08;32.91
59443;BME280;45247;47.466;19.004;2022-08-19T13:07:38;99215.63;;;38.13;31.82